Highland Hills, Ohio
Current Conditions -  °F | °C
As of 7:53 PM on Tuesday 21 Oct 2014 (Local Time) from KBKL Reporting Station
Light Rain Light Rain  
Wind Chill: 50°   Ceiling: 2000
Heat Index: 50°   Visibility: 10mi
Dew Point: 45°   Wind: 21mph
Humidity: 83%   Direction: 360°N
Pressure: 30.05"   Gusts: 28mph
Location:  41.4368°N, 81.5396°W
Report Text: KBKL 212353Z 36018G24KT 10SM -RA SCT014 OVC020 10/07 A3005 RMK AO2 PK WND 34026/2255 SLP176 P0004 60008 T01000072 10106 20094 53017
Loading
Personal Weather Stations






























Interactive Weather Map
Tropical Storm Tracking
New forecast layout! Learn more

10-Day Weather Forecast

Advertisements
Track Severe Weather on mobile